sensor_id;sensor_type;location;lat;lon;timestamp;temperature;humidity
52769;DHT22;40471;44.534;18.644;2023-05-29T00:01:15;16.50;99.90
52769;DHT22;40471;44.534;18.644;2023-05-29T00:03:44;16.50;99.90
52769;DHT22;40471;44.534;18.644;2023-05-29T00:06:10;16.50;99.90
52769;DHT22;40471;44.534;18.644;2023-05-29T00:08:36;16.50;99.90
52769;DHT22;40471;44.534;18.644;2023-05-29T00:11:02;16.50;99.90
52769;DHT22;40471;44.534;18.644;2023-05-29T00:13:27;16.40;99.90
52769;DHT22;40471;44.534;18.644;2023-05-29T00:15:53;16.40;99.90
52769;DHT22;40471;44.534;18.644;2023-05-29T00:18:19;16.40;99.90
52769;DHT22;40471;44.534;18.644;2023-05-29T00:20:45;16.40;99.90
52769;DHT22;40471;44.534;18.644;2023-05-29T00:23:10;16.20;99.90
52769;DHT22;40471;44.534;18.644;2023-05-29T00:25:36;16.20;99.90
52769;DHT22;40471;44.534;18.644;2023-05-29T00:28:02;16.20;99.90
52769;DHT22;40471;44.534;18.644;2023-05-29T00:30:28;16.20;99.90
52769;DHT22;40471;44.534;18.644;2023-05-29T00:32:53;16.10;99.90
52769;DHT22;40471;44.534;18.644;2023-05-29T00:35:19;16.10;99.90
52769;DHT22;40471;44.534;18.644;2023-05-29T00:37:45;16.00;99.90
52769;DHT22;40471;44.534;18.644;2023-05-29T00:40:11;16.00;99.90
52769;DHT22;40471;44.534;18.644;2023-05-29T00:42:37;16.10;99.90
52769;DHT22;40471;44.534;18.644;2023-05-29T00:45:03;16.00;99.90
52769;DHT22;40471;44.534;18.644;2023-05-29T00:47:29;15.90;99.90
52769;DHT22;40471;44.534;18.644;2023-05-29T00:49:56;15.90;99.90
52769;DHT22;40471;44.534;18.644;2023-05-29T00:52:24;15.90;99.90
52769;DHT22;40471;44.534;18.644;2023-05-29T00:54:50;15.80;99.90
52769;DHT22;40471;44.534;18.644;2023-05-29T00:57:17;15.80;99.90
52769;DHT22;40471;44.534;18.644;2023-05-29T00:59:44;15.80;99.90
52769;DHT22;40471;44.534;18.644;2023-05-29T01:02:11;15.80;99.90
52769;DHT22;40471;44.534;18.644;2023-05-29T01:04:38;15.80;99.90
52769;DHT22;40471;44.534;18.644;2023-05-29T01:07:04;15.70;99.90
52769;DHT22;40471;44.534;18.644;2023-05-29T01:09:30;15.70;99.90
52769;DHT22;40471;44.534;18.644;2023-05-29T01:14:45;15.60;99.90
52769;DHT22;40471;44.534;18.644;2023-05-29T01:17:30;15.60;99.90
52769;DHT22;40471;44.534;18.644;2023-05-29T01:26:10;15.40;99.90
52769;DHT22;40471;44.534;18.644;2023-05-29T01:28:52;15.30;99.90
52769;DHT22;40471;44.534;18.644;2023-05-29T01:31:23;15.20;99.90
52769;DHT22;40471;44.534;18.644;2023-05-29T01:33:58;15.20;99.90
52769;DHT22;40471;44.534;18.644;2023-05-29T01:36:25;15.10;99.90
52769;DHT22;40471;44.534;18.644;2023-05-29T01:38:53;15.10;99.90
52769;DHT22;40471;44.534;18.644;2023-05-29T01:41:21;15.10;99.90
52769;DHT22;40471;44.534;18.644;2023-05-29T01:43:49;15.10;99.90
52769;DHT22;40471;44.534;18.644;2023-05-29T01:46:16;15.10;99.90
52769;DHT22;40471;44.534;18.644;2023-05-29T01:48:43;15.10;99.90
52769;DHT22;40471;44.534;18.644;2023-05-29T01:51:09;15.10;99.90
52769;DHT22;40471;44.534;18.644;2023-05-29T01:53:39;15.20;99.90
52769;DHT22;40471;44.534;18.644;2023-05-29T01:56:05;15.10;99.90
52769;DHT22;40471;44.534;18.644;2023-05-29T01:58:33;15.20;99.90
52769;DHT22;40471;44.534;18.644;2023-05-29T02:01:01;15.20;99.90
52769;DHT22;40471;44.534;18.644;2023-05-29T02:03:27;15.20;99.90
52769;DHT22;40471;44.534;18.644;2023-05-29T02:05:57;15.20;99.90
52769;DHT22;40471;44.534;18.644;2023-05-29T02:08:24;15.20;99.90
52769;DHT22;40471;44.534;18.644;2023-05-29T02:10:49;15.10;99.90
52769;DHT22;40471;44.534;18.644;2023-05-29T02:13:16;15.10;99.90
52769;DHT22;40471;44.534;18.644;2023-05-29T02:15:42;15.10;99.90
52769;DHT22;40471;44.534;18.644;2023-05-29T02:18:13;15.20;99.90
52769;DHT22;40471;44.534;18.644;2023-05-29T02:20:40;15.10;99.90
52769;DHT22;40471;44.534;18.644;2023-05-29T02:23:07;15.20;99.90
52769;DHT22;40471;44.534;18.644;2023-05-29T02:25:33;15.20;99.90
52769;DHT22;40471;44.534;18.644;2023-05-29T02:27:59;15.20;99.90
52769;DHT22;40471;44.534;18.644;2023-05-29T02:30:25;15.20;99.90
52769;DHT22;40471;44.534;18.644;2023-05-29T02:32:50;15.20;99.90
52769;DHT22;40471;44.534;18.644;2023-05-29T02:35:16;15.20;99.90
52769;DHT22;40471;44.534;18.644;2023-05-29T02:37:46;15.10;99.90
52769;DHT22;40471;44.534;18.644;2023-05-29T02:40:12;15.10;99.90
52769;DHT22;40471;44.534;18.644;2023-05-29T02:42:37;15.20;99.90
52769;DHT22;40471;44.534;18.644;2023-05-29T02:45:03;15.10;99.90
52769;DHT22;40471;44.534;18.644;2023-05-29T02:47:29;15.10;99.90
52769;DHT22;40471;44.534;18.644;2023-05-29T02:49:55;15.10;99.90
52769;DHT22;40471;44.534;18.644;2023-05-29T02:52:21;15.10;99.90
52769;DHT22;40471;44.534;18.644;2023-05-29T02:54:48;15.10;99.90
52769;DHT22;40471;44.534;18.644;2023-05-29T02:57:14;15.10;99.90
52769;DHT22;40471;44.534;18.644;2023-05-29T02:59:41;15.20;99.90
52769;DHT22;40471;44.534;18.644;2023-05-29T03:02:07;15.20;99.90
52769;DHT22;40471;44.534;18.644;2023-05-29T03:04:32;15.20;99.90
52769;DHT22;40471;44.534;18.644;2023-05-29T03:06:58;15.30;99.90
52769;DHT22;40471;44.534;18.644;2023-05-29T03:09:24;15.30;99.90
52769;DHT22;40471;44.534;18.644;2023-05-29T03:11:50;15.30;99.90
52769;DHT22;40471;44.534;18.644;2023-05-29T03:14:16;15.30;99.90
52769;DHT22;40471;44.534;18.644;2023-05-29T03:16:43;15.40;99.90
52769;DHT22;40471;44.534;18.644;2023-05-29T03:19:09;15.40;99.90
52769;DHT22;40471;44.534;18.644;2023-05-29T03:21:35;15.40;99.90
52769;DHT22;40471;44.534;18.644;2023-05-29T03:24:01;15.40;99.90
52769;DHT22;40471;44.534;18.644;2023-05-29T03:26:28;15.50;99.90
52769;DHT22;40471;44.534;18.644;2023-05-29T03:28:54;15.50;99.90
52769;DHT22;40471;44.534;18.644;2023-05-29T03:31:20;15.60;99.90
52769;DHT22;40471;44.534;18.644;2023-05-29T03:33:48;15.60;99.90
52769;DHT22;40471;44.534;18.644;2023-05-29T03:36:14;15.50;99.90
52769;DHT22;40471;44.534;18.644;2023-05-29T03:38:42;15.60;99.90
52769;DHT22;40471;44.534;18.644;2023-05-29T03:41:08;15.50;99.90
52769;DHT22;40471;44.534;18.644;2023-05-29T03:43:34;15.60;99.90
52769;DHT22;40471;44.534;18.644;2023-05-29T03:46:00;15.60;99.90
52769;DHT22;40471;44.534;18.644;2023-05-29T03:48:25;15.60;99.90
52769;DHT22;40471;44.534;18.644;2023-05-29T03:50:51;15.70;99.90
52769;DHT22;40471;44.534;18.644;2023-05-29T03:53:17;15.70;99.90
52769;DHT22;40471;44.534;18.644;2023-05-29T03:55:43;15.50;99.90
52769;DHT22;40471;44.534;18.644;2023-05-29T03:58:08;15.40;99.90
52769;DHT22;40471;44.534;18.644;2023-05-29T04:00:38;15.40;99.90
52769;DHT22;40471;44.534;18.644;2023-05-29T04:03:03;15.50;99.90
52769;DHT22;40471;44.534;18.644;2023-05-29T04:08:51;15.60;99.90
52769;DHT22;40471;44.534;18.644;2023-05-29T04:11:17;15.70;99.90
52769;DHT22;40471;44.534;18.644;2023-05-29T04:13:46;15.70;99.90
52769;DHT22;40471;44.534;18.644;2023-05-29T04:16:13;15.70;99.90
52769;DHT22;40471;44.534;18.644;2023-05-29T04:18:39;15.90;99.90
52769;DHT22;40471;44.534;18.644;2023-05-29T04:21:05;15.90;99.90
52769;DHT22;40471;44.534;18.644;2023-05-29T04:23:31;16.00;99.90
52769;DHT22;40471;44.534;18.644;2023-05-29T04:25:57;16.10;99.90
52769;DHT22;40471;44.534;18.644;2023-05-29T04:28:23;16.20;99.90
52769;DHT22;40471;44.534;18.644;2023-05-29T04:30:50;16.20;99.90
52769;DHT22;40471;44.534;18.644;2023-05-29T04:33:17;16.30;99.90
52769;DHT22;40471;44.534;18.644;2023-05-29T04:35:43;16.30;99.90
52769;DHT22;40471;44.534;18.644;2023-05-29T04:38:09;16.40;99.90
52769;DHT22;40471;44.534;18.644;2023-05-29T04:40:35;16.50;99.90
52769;DHT22;40471;44.534;18.644;2023-05-29T04:43:06;16.60;99.90
52769;DHT22;40471;44.534;18.644;2023-05-29T04:45:31;16.70;99.90
52769;DHT22;40471;44.534;18.644;2023-05-29T04:47:57;16.80;99.90
52769;DHT22;40471;44.534;18.644;2023-05-29T04:50:23;16.90;99.90
52769;DHT22;40471;44.534;18.644;2023-05-29T04:52:49;16.90;99.90
52769;DHT22;40471;44.534;18.644;2023-05-29T04:55:15;16.80;99.90
52769;DHT22;40471;44.534;18.644;2023-05-29T04:57:41;16.90;99.90
52769;DHT22;40471;44.534;18.644;2023-05-29T05:00:08;16.90;99.90
52769;DHT22;40471;44.534;18.644;2023-05-29T05:02:41;16.90;99.90
52769;DHT22;40471;44.534;18.644;2023-05-29T05:05:07;16.70;99.90
52769;DHT22;40471;44.534;18.644;2023-05-29T05:07:33;16.90;99.90
52769;DHT22;40471;44.534;18.644;2023-05-29T05:09:59;17.00;99.90
52769;DHT22;40471;44.534;18.644;2023-05-29T05:12:25;16.30;99.90
52769;DHT22;40471;44.534;18.644;2023-05-29T05:14:51;17.10;99.90
52769;DHT22;40471;44.534;18.644;2023-05-29T05:17:16;17.10;99.90
52769;DHT22;40471;44.534;18.644;2023-05-29T05:19:42;17.20;99.90
52769;DHT22;40471;44.534;18.644;2023-05-29T05:22:08;17.30;99.90
52769;DHT22;40471;44.534;18.644;2023-05-29T05:24:34;17.40;99.90
52769;DHT22;40471;44.534;18.644;2023-05-29T05:27:00;17.40;99.90
52769;DHT22;40471;44.534;18.644;2023-05-29T05:29:27;17.50;99.90
52769;DHT22;40471;44.534;18.644;2023-05-29T05:31:53;17.50;99.90
52769;DHT22;40471;44.534;18.644;2023-05-29T05:34:18;17.60;99.90
52769;DHT22;40471;44.534;18.644;2023-05-29T05:36:44;17.70;99.90
52769;DHT22;40471;44.534;18.644;2023-05-29T05:39:10;17.60;99.90
52769;DHT22;40471;44.534;18.644;2023-05-29T05:41:36;17.60;99.90
52769;DHT22;40471;44.534;18.644;2023-05-29T05:44:02;17.60;99.90
52769;DHT22;40471;44.534;18.644;2023-05-29T05:46:28;17.40;99.90
52769;DHT22;40471;44.534;18.644;2023-05-29T05:48:54;17.30;99.90
52769;DHT22;40471;44.534;18.644;2023-05-29T05:51:26;17.40;99.90
52769;DHT22;40471;44.534;18.644;2023-05-29T05:53:52;17.40;99.90
52769;DHT22;40471;44.534;18.644;2023-05-29T05:56:18;17.60;99.90
52769;DHT22;40471;44.534;18.644;2023-05-29T05:58:44;17.60;99.90
52769;DHT22;40471;44.534;18.644;2023-05-29T06:01:10;17.70;99.90
52769;DHT22;40471;44.534;18.644;2023-05-29T06:03:36;17.80;99.90
52769;DHT22;40471;44.534;18.644;2023-05-29T06:06:03;18.00;99.90
52769;DHT22;40471;44.534;18.644;2023-05-29T06:08:29;18.10;99.90
52769;DHT22;40471;44.534;18.644;2023-05-29T06:10:56;18.30;99.90
52769;DHT22;40471;44.534;18.644;2023-05-29T06:13:22;18.30;99.90
52769;DHT22;40471;44.534;18.644;2023-05-29T07:20:05;28.10;99.90
52769;DHT22;40471;44.534;18.644;2023-05-29T07:22:34;29.10;99.40
52769;DHT22;40471;44.534;18.644;2023-05-29T07:25:03;31.00;96.60
52769;DHT22;40471;44.534;18.644;2023-05-29T07:27:29;32.40;93.40
52769;DHT22;40471;44.534;18.644;2023-05-29T07:29:55;31.70;90.50
52769;DHT22;40471;44.534;18.644;2023-05-29T07:32:21;31.00;90.30
52769;DHT22;40471;44.534;18.644;2023-05-29T07:34:47;30.50;90.60
52769;DHT22;40471;44.534;18.644;2023-05-29T07:50:44;29.30;91.20
52769;DHT22;40471;44.534;18.644;2023-05-29T07:59:54;29.80;92.10
52769;DHT22;40471;44.534;18.644;2023-05-29T08:02:20;29.70;91.60
52769;DHT22;40471;44.534;18.644;2023-05-29T08:08:05;30.10;91.10
52769;DHT22;40471;44.534;18.644;2023-05-29T08:13:53;32.00;84.30
52769;DHT22;40471;44.534;18.644;2023-05-29T08:16:18;32.60;83.00
52769;DHT22;40471;44.534;18.644;2023-05-29T08:18:44;32.60;83.50
52769;DHT22;40471;44.534;18.644;2023-05-29T08:21:10;33.00;82.30
52769;DHT22;40471;44.534;18.644;2023-05-29T08:23:37;33.40;82.90
52769;DHT22;40471;44.534;18.644;2023-05-29T08:26:07;34.10;80.20
52769;DHT22;40471;44.534;18.644;2023-05-29T08:28:33;34.70;76.40
52769;DHT22;40471;44.534;18.644;2023-05-29T08:30:59;34.30;76.70
52769;DHT22;40471;44.534;18.644;2023-05-29T08:33:25;34.00;76.00
52769;DHT22;40471;44.534;18.644;2023-05-29T08:35:51;33.40;77.40
52769;DHT22;40471;44.534;18.644;2023-05-29T08:38:17;33.10;79.10
52769;DHT22;40471;44.534;18.644;2023-05-29T08:40:43;32.60;77.70
52769;DHT22;40471;44.534;18.644;2023-05-29T08:43:16;32.10;78.70
52769;DHT22;40471;44.534;18.644;2023-05-29T08:45:45;31.30;80.40
52769;DHT22;40471;44.534;18.644;2023-05-29T08:48:14;31.00;83.40
52769;DHT22;40471;44.534;18.644;2023-05-29T08:50:44;32.40;83.10
52769;DHT22;40471;44.534;18.644;2023-05-29T08:53:13;33.40;81.60
52769;DHT22;40471;44.534;18.644;2023-05-29T08:55:38;33.90;80.10
52769;DHT22;40471;44.534;18.644;2023-05-29T08:58:05;34.50;78.20
52769;DHT22;40471;44.534;18.644;2023-05-29T09:01:00;34.80;75.90
52769;DHT22;40471;44.534;18.644;2023-05-29T09:20:28;33.10;77.20
52769;DHT22;40471;44.534;18.644;2023-05-29T09:22:57;33.50;77.40
52769;DHT22;40471;44.534;18.644;2023-05-29T09:25:25;33.80;75.20
52769;DHT22;40471;44.534;18.644;2023-05-29T09:27:59;33.80;76.30
52769;DHT22;40471;44.534;18.644;2023-05-29T09:30:39;34.10;76.30
52769;DHT22;40471;44.534;18.644;2023-05-29T09:33:09;34.00;74.80
52769;DHT22;40471;44.534;18.644;2023-05-29T09:40:39;33.70;73.70
52769;DHT22;40471;44.534;18.644;2023-05-29T09:43:18;34.10;72.80
52769;DHT22;40471;44.534;18.644;2023-05-29T09:45:47;33.90;74.80
52769;DHT22;40471;44.534;18.644;2023-05-29T09:48:18;33.80;72.60
52769;DHT22;40471;44.534;18.644;2023-05-29T09:50:47;32.70;74.20
52769;DHT22;40471;44.534;18.644;2023-05-29T09:53:18;31.80;76.20
52769;DHT22;40471;44.534;18.644;2023-05-29T09:55:48;31.50;77.70
52769;DHT22;40471;44.534;18.644;2023-05-29T09:58:15;31.50;80.00
52769;DHT22;40471;44.534;18.644;2023-05-29T10:04:29;33.20;78.30
52769;DHT22;40471;44.534;18.644;2023-05-29T10:06:56;32.70;75.40
52769;DHT22;40471;44.534;18.644;2023-05-29T10:16:10;31.50;77.00
52769;DHT22;40471;44.534;18.644;2023-05-29T10:18:43;31.20;77.60
52769;DHT22;40471;44.534;18.644;2023-05-29T10:21:14;30.90;78.00
52769;DHT22;40471;44.534;18.644;2023-05-29T10:23:46;30.60;79.50
52769;DHT22;40471;44.534;18.644;2023-05-29T10:26:22;30.20;80.80
52769;DHT22;40471;44.534;18.644;2023-05-29T10:29:02;29.90;80.80
52769;DHT22;40471;44.534;18.644;2023-05-29T10:34:18;28.70;83.90
52769;DHT22;40471;44.534;18.644;2023-05-29T10:37:03;28.30;86.30
52769;DHT22;40471;44.534;18.644;2023-05-29T10:39:30;27.90;89.10
52769;DHT22;40471;44.534;18.644;2023-05-29T10:41:56;27.60;91.60
52769;DHT22;40471;44.534;18.644;2023-05-29T10:47:11;26.30;95.00
52769;DHT22;40471;44.534;18.644;2023-05-29T10:49:38;26.00;93.00
52769;DHT22;40471;44.534;18.644;2023-05-29T10:52:04;25.60;93.70
52769;DHT22;40471;44.534;18.644;2023-05-29T10:54:40;25.30;98.50
52769;DHT22;40471;44.534;18.644;2023-05-29T10:57:07;25.20;98.50
52769;DHT22;40471;44.534;18.644;2023-05-29T10:59:36;25.20;99.90
52769;DHT22;40471;44.534;18.644;2023-05-29T11:02:04;24.90;99.90
52769;DHT22;40471;44.534;18.644;2023-05-29T11:04:32;24.70;99.90
52769;DHT22;40471;44.534;18.644;2023-05-29T11:07:00;24.60;99.90
52769;DHT22;40471;44.534;18.644;2023-05-29T11:15:05;25.50;99.90
52769;DHT22;40471;44.534;18.644;2023-05-29T11:17:43;26.10;99.90
52769;DHT22;40471;44.534;18.644;2023-05-29T11:20:36;26.10;99.90
52769;DHT22;40471;44.534;18.644;2023-05-29T11:23:06;26.00;99.90
52769;DHT22;40471;44.534;18.644;2023-05-29T11:25:38;25.90;99.90
52769;DHT22;40471;44.534;18.644;2023-05-29T11:28:05;25.90;99.90
52769;DHT22;40471;44.534;18.644;2023-05-29T11:33:26;25.80;99.90
52769;DHT22;40471;44.534;18.644;2023-05-29T11:36:01;25.80;99.90
52769;DHT22;40471;44.534;18.644;2023-05-29T11:38:28;26.00;99.90
52769;DHT22;40471;44.534;18.644;2023-05-29T11:40:54;26.20;99.90
52769;DHT22;40471;44.534;18.644;2023-05-29T11:43:21;26.70;99.90
52769;DHT22;40471;44.534;18.644;2023-05-29T11:46:18;27.00;99.90
52769;DHT22;40471;44.534;18.644;2023-05-29T11:48:46;26.90;99.90
52769;DHT22;40471;44.534;18.644;2023-05-29T11:51:12;26.90;99.90
52769;DHT22;40471;44.534;18.644;2023-05-29T11:53:42;26.90;99.90
52769;DHT22;40471;44.534;18.644;2023-05-29T11:56:24;26.90;99.90
52769;DHT22;40471;44.534;18.644;2023-05-29T12:02:24;27.90;99.90
52769;DHT22;40471;44.534;18.644;2023-05-29T12:05:04;28.40;99.90
52769;DHT22;40471;44.534;18.644;2023-05-29T12:07:33;28.30;99.90
52769;DHT22;40471;44.534;18.644;2023-05-29T12:10:13;28.30;99.90
52769;DHT22;40471;44.534;18.644;2023-05-29T12:12:56;28.30;99.90
52769;DHT22;40471;44.534;18.644;2023-05-29T12:18:46;28.00;99.90
52769;DHT22;40471;44.534;18.644;2023-05-29T12:21:12;27.80;99.90
52769;DHT22;40471;44.534;18.644;2023-05-29T12:23:39;27.90;99.90
52769;DHT22;40471;44.534;18.644;2023-05-29T12:26:05;27.80;99.90
52769;DHT22;40471;44.534;18.644;2023-05-29T12:28:31;27.80;99.90
52769;DHT22;40471;44.534;18.644;2023-05-29T12:31:00;27.90;99.90
52769;DHT22;40471;44.534;18.644;2023-05-29T12:33:30;28.00;99.90
52769;DHT22;40471;44.534;18.644;2023-05-29T12:36:09;28.10;99.90
52769;DHT22;40471;44.534;18.644;2023-05-29T12:38:49;28.00;99.90
52769;DHT22;40471;44.534;18.644;2023-05-29T12:41:29;27.80;99.90
52769;DHT22;40471;44.534;18.644;2023-05-29T12:43:56;27.70;99.90
52769;DHT22;40471;44.534;18.644;2023-05-29T12:46:26;27.90;99.90
52769;DHT22;40471;44.534;18.644;2023-05-29T12:48:54;28.10;99.90
52769;DHT22;40471;44.534;18.644;2023-05-29T12:51:27;28.20;99.90
52769;DHT22;40471;44.534;18.644;2023-05-29T12:53:53;28.20;99.90
52769;DHT22;40471;44.534;18.644;2023-05-29T12:56:25;28.10;99.90
52769;DHT22;40471;44.534;18.644;2023-05-29T12:58:58;27.90;99.90
52769;DHT22;40471;44.534;18.644;2023-05-29T13:01:24;27.70;99.90
52769;DHT22;40471;44.534;18.644;2023-05-29T13:03:50;27.50;99.90
52769;DHT22;40471;44.534;18.644;2023-05-29T13:06:16;27.40;99.90
52769;DHT22;40471;44.534;18.644;2023-05-29T13:08:43;27.30;99.90
52769;DHT22;40471;44.534;18.644;2023-05-29T13:11:09;27.30;99.90
52769;DHT22;40471;44.534;18.644;2023-05-29T13:13:34;27.30;99.90
52769;DHT22;40471;44.534;18.644;2023-05-29T13:16:00;27.20;99.90
52769;DHT22;40471;44.534;18.644;2023-05-29T13:18:26;27.10;99.90
52769;DHT22;40471;44.534;18.644;2023-05-29T13:20:52;27.00;99.90
52769;DHT22;40471;44.534;18.644;2023-05-29T13:23:18;27.00;99.90
52769;DHT22;40471;44.534;18.644;2023-05-29T13:25:44;26.90;99.90
52769;DHT22;40471;44.534;18.644;2023-05-29T13:28:11;26.80;99.90
52769;DHT22;40471;44.534;18.644;2023-05-29T13:30:37;26.70;99.90
52769;DHT22;40471;44.534;18.644;2023-05-29T13:33:02;26.70;99.90
52769;DHT22;40471;44.534;18.644;2023-05-29T13:35:28;26.60;99.90
52769;DHT22;40471;44.534;18.644;2023-05-29T13:37:54;26.60;99.90
52769;DHT22;40471;44.534;18.644;2023-05-29T13:40:20;26.70;99.90
52769;DHT22;40471;44.534;18.644;2023-05-29T13:42:46;26.70;99.90
52769;DHT22;40471;44.534;18.644;2023-05-29T13:45:11;26.60;99.90
52769;DHT22;40471;44.534;18.644;2023-05-29T13:47:38;26.50;99.90
52769;DHT22;40471;44.534;18.644;2023-05-29T13:50:04;26.50;99.90
52769;DHT22;40471;44.534;18.644;2023-05-29T13:52:34;26.50;99.90
52769;DHT22;40471;44.534;18.644;2023-05-29T13:55:03;26.50;99.90
52769;DHT22;40471;44.534;18.644;2023-05-29T13:57:34;26.50;99.90
52769;DHT22;40471;44.534;18.644;2023-05-29T14:00:00;26.60;99.90
52769;DHT22;40471;44.534;18.644;2023-05-29T14:02:26;26.40;99.90
52769;DHT22;40471;44.534;18.644;2023-05-29T14:04:52;26.10;99.90
52769;DHT22;40471;44.534;18.644;2023-05-29T14:07:17;25.70;99.90
52769;DHT22;40471;44.534;18.644;2023-05-29T14:09:43;25.50;99.90
52769;DHT22;40471;44.534;18.644;2023-05-29T14:12:09;25.20;99.90
52769;DHT22;40471;44.534;18.644;2023-05-29T14:14:35;25.20;99.90
52769;DHT22;40471;44.534;18.644;2023-05-29T14:17:00;25.20;99.90
52769;DHT22;40471;44.534;18.644;2023-05-29T14:19:26;25.20;99.90
52769;DHT22;40471;44.534;18.644;2023-05-29T14:21:52;25.30;99.90
52769;DHT22;40471;44.534;18.644;2023-05-29T14:24:18;25.30;99.90
52769;DHT22;40471;44.534;18.644;2023-05-29T14:26:44;25.30;99.90
52769;DHT22;40471;44.534;18.644;2023-05-29T14:29:13;25.30;99.90
52769;DHT22;40471;44.534;18.644;2023-05-29T14:31:40;25.30;99.90
52769;DHT22;40471;44.534;18.644;2023-05-29T14:34:06;25.30;99.90
52769;DHT22;40471;44.534;18.644;2023-05-29T14:36:32;25.30;99.90
52769;DHT22;40471;44.534;18.644;2023-05-29T14:38:57;25.40;99.90
52769;DHT22;40471;44.534;18.644;2023-05-29T14:41:23;25.40;99.90
52769;DHT22;40471;44.534;18.644;2023-05-29T14:43:50;25.50;99.90
52769;DHT22;40471;44.534;18.644;2023-05-29T14:46:17;25.50;99.90
52769;DHT22;40471;44.534;18.644;2023-05-29T14:48:43;25.50;99.90
52769;DHT22;40471;44.534;18.644;2023-05-29T14:51:08;25.60;99.90
52769;DHT22;40471;44.534;18.644;2023-05-29T14:53:35;25.60;99.90
52769;DHT22;40471;44.534;18.644;2023-05-29T14:56:01;25.60;99.90
52769;DHT22;40471;44.534;18.644;2023-05-29T14:58:27;25.70;99.90
52769;DHT22;40471;44.534;18.644;2023-05-29T15:00:53;25.80;99.90
52769;DHT22;40471;44.534;18.644;2023-05-29T15:03:19;25.90;99.90
52769;DHT22;40471;44.534;18.644;2023-05-29T15:05:45;26.10;99.90
52769;DHT22;40471;44.534;18.644;2023-05-29T15:08:11;26.10;99.90
52769;DHT22;40471;44.534;18.644;2023-05-29T15:10:37;26.30;99.90
52769;DHT22;40471;44.534;18.644;2023-05-29T15:13:03;26.30;99.90
52769;DHT22;40471;44.534;18.644;2023-05-29T15:15:30;26.40;99.90
52769;DHT22;40471;44.534;18.644;2023-05-29T15:17:55;26.30;99.90
52769;DHT22;40471;44.534;18.644;2023-05-29T15:20:22;26.20;99.90
52769;DHT22;40471;44.534;18.644;2023-05-29T15:22:48;26.10;99.90
52769;DHT22;40471;44.534;18.644;2023-05-29T15:25:14;26.20;99.90
52769;DHT22;40471;44.534;18.644;2023-05-29T15:27:41;26.10;99.90
52769;DHT22;40471;44.534;18.644;2023-05-29T15:30:12;26.10;99.90
52769;DHT22;40471;44.534;18.644;2023-05-29T15:32:39;26.10;99.90
52769;DHT22;40471;44.534;18.644;2023-05-29T15:35:07;26.20;99.90
52769;DHT22;40471;44.534;18.644;2023-05-29T15:37:33;26.30;99.90
52769;DHT22;40471;44.534;18.644;2023-05-29T15:39:59;26.20;99.90
52769;DHT22;40471;44.534;18.644;2023-05-29T15:42:25;26.20;99.90
52769;DHT22;40471;44.534;18.644;2023-05-29T15:44:50;26.20;99.90
52769;DHT22;40471;44.534;18.644;2023-05-29T15:47:16;26.20;99.90
52769;DHT22;40471;44.534;18.644;2023-05-29T15:49:42;26.10;99.90
52769;DHT22;40471;44.534;18.644;2023-05-29T15:52:10;25.80;99.90
52769;DHT22;40471;44.534;18.644;2023-05-29T15:54:36;25.60;99.90
52769;DHT22;40471;44.534;18.644;2023-05-29T15:57:01;25.50;99.90
52769;DHT22;40471;44.534;18.644;2023-05-29T15:59:31;25.40;99.90
52769;DHT22;40471;44.534;18.644;2023-05-29T16:01:57;25.40;99.90
52769;DHT22;40471;44.534;18.644;2023-05-29T16:04:44;25.30;99.90
52769;DHT22;40471;44.534;18.644;2023-05-29T16:07:12;25.20;99.90
52769;DHT22;40471;44.534;18.644;2023-05-29T16:09:38;25.10;99.90
52769;DHT22;40471;44.534;18.644;2023-05-29T16:12:05;25.10;99.90
52769;DHT22;40471;44.534;18.644;2023-05-29T16:14:35;25.10;99.90
52769;DHT22;40471;44.534;18.644;2023-05-29T16:17:01;24.90;99.90
52769;DHT22;40471;44.534;18.644;2023-05-29T16:19:26;24.90;99.90
52769;DHT22;40471;44.534;18.644;2023-05-29T16:21:54;24.80;99.90
52769;DHT22;40471;44.534;18.644;2023-05-29T16:24:26;24.80;99.90
52769;DHT22;40471;44.534;18.644;2023-05-29T16:26:52;24.90;99.90
52769;DHT22;40471;44.534;18.644;2023-05-29T16:29:18;24.80;99.90
52769;DHT22;40471;44.534;18.644;2023-05-29T16:31:45;24.80;99.90
52769;DHT22;40471;44.534;18.644;2023-05-29T16:34:10;24.90;99.90
52769;DHT22;40471;44.534;18.644;2023-05-29T16:36:36;24.90;99.90
52769;DHT22;40471;44.534;18.644;2023-05-29T16:39:02;24.90;99.90
52769;DHT22;40471;44.534;18.644;2023-05-29T16:41:27;24.80;99.90
52769;DHT22;40471;44.534;18.644;2023-05-29T16:43:53;24.80;99.90
52769;DHT22;40471;44.534;18.644;2023-05-29T16:46:19;24.80;99.90
52769;DHT22;40471;44.534;18.644;2023-05-29T16:48:45;24.80;99.90
52769;DHT22;40471;44.534;18.644;2023-05-29T16:51:10;24.80;99.90
52769;DHT22;40471;44.534;18.644;2023-05-29T16:53:36;24.90;99.90
52769;DHT22;40471;44.534;18.644;2023-05-29T16:56:03;24.90;99.90
52769;DHT22;40471;44.534;18.644;2023-05-29T16:58:30;24.90;99.90
52769;DHT22;40471;44.534;18.644;2023-05-29T17:00:56;24.90;99.90
52769;DHT22;40471;44.534;18.644;2023-05-29T17:03:22;24.90;99.90
52769;DHT22;40471;44.534;18.644;2023-05-29T17:05:47;24.80;99.90
52769;DHT22;40471;44.534;18.644;2023-05-29T17:08:13;24.80;99.90
52769;DHT22;40471;44.534;18.644;2023-05-29T17:10:39;24.70;99.90
52769;DHT22;40471;44.534;18.644;2023-05-29T17:13:06;24.70;99.90
52769;DHT22;40471;44.534;18.644;2023-05-29T17:15:32;24.70;99.90
52769;DHT22;40471;44.534;18.644;2023-05-29T17:17:58;24.70;99.90
52769;DHT22;40471;44.534;18.644;2023-05-29T17:20:24;24.60;99.90
52769;DHT22;40471;44.534;18.644;2023-05-29T17:22:50;24.60;99.90
52769;DHT22;40471;44.534;18.644;2023-05-29T17:25:15;24.60;99.90
52769;DHT22;40471;44.534;18.644;2023-05-29T17:27:41;24.50;99.90
52769;DHT22;40471;44.534;18.644;2023-05-29T17:30:07;24.40;99.90
52769;DHT22;40471;44.534;18.644;2023-05-29T17:32:33;24.30;99.90
52769;DHT22;40471;44.534;18.644;2023-05-29T17:34:58;24.20;99.90
52769;DHT22;40471;44.534;18.644;2023-05-29T17:37:24;24.20;99.90
52769;DHT22;40471;44.534;18.644;2023-05-29T17:39:49;24.10;99.90
52769;DHT22;40471;44.534;18.644;2023-05-29T17:42:15;23.90;99.90
52769;DHT22;40471;44.534;18.644;2023-05-29T17:44:41;23.90;99.90
52769;DHT22;40471;44.534;18.644;2023-05-29T17:47:06;23.80;99.90
52769;DHT22;40471;44.534;18.644;2023-05-29T17:49:32;23.70;99.90
52769;DHT22;40471;44.534;18.644;2023-05-29T17:51:57;23.60;99.90
52769;DHT22;40471;44.534;18.644;2023-05-29T17:54:23;23.50;99.90